Time;durP1;ratioP1;P1;durP2;ratioP2;P2;SDS_P1;SDS_P2;PMS_P1;PMS_P2;Temp;Humidity;BMP_temperature;BMP_pressure;BME280_temperature;BME280_humidity;BME280_pressure;Samples;Min_cycle;Max_cycle;Signal;HPM_P1;HPM_P2
2022/08/01 00:01:13;;;;;;;1.10;1.10;;;29.60;32.70;;;;;;5109520;27;45298;-72
2022/08/01 00:03:40;;;;;;;1.58;1.20;;;29.60;32.70;;;;;;5101206;27;45238;-71
2022/08/01 00:06:08;;;;;;;1.20;1.10;;;29.60;32.80;;;;;;5108668;27;45225;-73
2022/08/01 00:08:35;;;;;;;1.30;1.20;;;29.60;32.70;;;;;;5108871;27;45334;-73
2022/08/01 00:11:01;;;;;;;1.08;1.00;;;29.60;32.80;;;;;;5109387;27;45297;-72
2022/08/01 00:13:28;;;;;;;1.02;1.02;;;29.50;32.60;;;;;;5102618;27;45387;-72
2022/08/01 00:15:55;;;;;;;1.65;1.20;;;29.50;32.80;;;;;;5088746;28;46370;-73
2022/08/01 00:18:22;;;;;;;1.20;1.10;;;29.50;32.90;;;;;;5088689;28;45313;-73
2022/08/01 00:20:49;;;;;;;1.00;1.00;;;29.40;32.90;;;;;;5088847;28;45210;-73
2022/08/01 00:23:17;;;;;;;1.02;1.02;;;29.40;32.80;;;;;;5088958;28;45380;-73
2022/08/01 00:25:44;;;;;;;1.17;1.10;;;29.40;32.80;;;;;;5088506;28;45355;-72
2022/08/01 00:28:11;;;;;;;1.27;1.13;;;29.40;32.80;;;;;;5088571;28;45177;-72
2022/08/01 00:30:38;;;;;;;1.50;1.05;;;29.40;32.80;;;;;;5089446;27;45278;-73
2022/08/01 00:33:04;;;;;;;1.60;1.10;;;29.40;33.00;;;;;;5109504;27;45196;-72
2022/08/01 00:35:31;;;;;;;1.17;1.10;;;29.30;32.80;;;;;;5108878;27;46334;-73
2022/08/01 00:37:58;;;;;;;0.90;0.90;;;29.30;32.80;;;;;;5089353;27;45269;-72
2022/08/01 00:40:26;;;;;;;1.35;1.15;;;29.30;32.90;;;;;;5087121;28;45213;-72
2022/08/01 00:42:53;;;;;;;1.20;1.10;;;29.30;33.00;;;;;;5087365;28;45404;-72
2022/08/01 00:45:20;;;;;;;1.10;1.10;;;29.20;33.00;;;;;;5086612;28;46403;-72
2022/08/01 00:47:46;;;;;;;1.52;1.20;;;29.20;32.90;;;;;;5086792;28;45366;-72
2022/08/01 00:50:13;;;;;;;1.42;1.20;;;29.20;33.00;;;;;;5086347;28;45145;-71
2022/08/01 00:52:40;;;;;;;1.00;1.00;;;29.20;33.00;;;;;;5086848;28;45199;-73
2022/08/01 00:55:08;;;;;;;1.30;1.30;;;29.20;33.00;;;;;;5086522;28;45291;-72
2022/08/01 00:57:36;;;;;;;1.13;1.02;;;29.20;33.20;;;;;;5086662;28;45227;-72
2022/08/01 01:00:03;;;;;;;1.00;1.00;;;29.10;33.00;;;;;;5086751;28;45311;-72
2022/08/01 01:02:30;;;;;;;1.13;0.98;;;29.10;33.10;;;;;;5087177;28;45427;-72
2022/08/01 01:04:57;;;;;;;1.08;1.08;;;29.10;33.10;;;;;;5086277;28;46358;-73
2022/08/01 01:07:28;;;;;;;1.40;1.30;;;29.10;33.20;;;;;;5086405;28;45291;-72
2022/08/01 01:09:57;;;;;;;1.30;1.20;;;29.00;33.10;;;;;;5086550;28;45304;-72
2022/08/01 01:12:28;;;;;;;1.02;1.02;;;29.00;33.10;;;;;;5085784;28;45182;-72
2022/08/01 01:15:00;;;;;;;1.10;1.10;;;29.00;33.10;;;;;;5085651;28;45259;-73
2022/08/01 01:17:30;;;;;;;1.25;1.23;;;28.90;33.10;;;;;;5086266;28;45300;-73
2022/08/01 01:19:58;;;;;;;2.03;1.27;;;28.90;33.20;;;;;;5086414;28;45135;-72
2022/08/01 01:22:30;;;;;;;1.13;1.02;;;28.90;33.20;;;;;;5086628;28;45219;-72
2022/08/01 01:25:09;;;;;;;1.48;1.17;;;28.90;33.20;;;;;;5086049;28;46341;-72
2022/08/01 01:27:43;;;;;;;1.23;1.13;;;28.80;33.30;;;;;;5086132;28;45236;-72
2022/08/01 01:30:11;;;;;;;0.93;0.93;;;28.80;33.20;;;;;;5074390;28;45278;-72
2022/08/01 01:32:40;;;;;;;1.00;1.00;;;28.80;33.20;;;;;;5083479;28;45440;-72
2022/08/01 01:35:08;;;;;;;1.15;1.08;;;28.80;33.40;;;;;;5085933;28;45179;-72
2022/08/01 01:37:35;;;;;;;1.33;1.17;;;28.80;33.50;;;;;;5097295;27;45271;-72
2022/08/01 01:40:02;;;;;;;1.77;1.30;;;28.80;33.40;;;;;;5062616;27;1141488;-72
2022/08/01 01:42:29;;;;;;;1.40;1.30;;;28.70;33.40;;;;;;5108471;27;45344;-73
2022/08/01 01:44:56;;;;;;;1.55;1.33;;;28.70;33.50;;;;;;5107707;27;46401;-72
2022/08/01 01:47:24;;;;;;;1.23;1.20;;;28.70;33.50;;;;;;5107817;27;45219;-72
2022/08/01 01:49:51;;;;;;;1.30;1.20;;;28.60;33.50;;;;;;5107846;27;45379;-71
2022/08/01 01:52:18;;;;;;;1.52;1.42;;;28.70;33.50;;;;;;5107328;27;45279;-72
2022/08/01 01:54:46;;;;;;;1.42;0.98;;;28.60;33.50;;;;;;5107711;27;46748;-72
2022/08/01 01:57:13;;;;;;;1.00;1.00;;;28.60;33.50;;;;;;5107568;27;45178;-72
2022/08/01 01:59:40;;;;;;;1.38;1.23;;;28.60;33.70;;;;;;5107924;27;45258;-72
2022/08/01 02:02:07;;;;;;;1.15;1.05;;;28.60;33.80;;;;;;5105198;27;45423;-72
2022/08/01 02:04:37;;;;;;;1.10;1.00;;;28.60;33.60;;;;;;5107495;27;45230;-72
2022/08/01 02:07:04;;;;;;;1.17;1.17;;;28.50;33.60;;;;;;5107532;27;45228;-72
2022/08/01 02:09:30;;;;;;;0.93;0.93;;;28.50;33.80;;;;;;5107762;27;45379;-72
2022/08/01 02:11:58;;;;;;;1.08;1.00;;;28.50;34.00;;;;;;5107678;27;45316;-72
2022/08/01 02:14:26;;;;;;;1.00;1.00;;;28.50;33.70;;;;;;5092609;27;47333;-72
2022/08/01 02:16:53;;;;;;;1.88;1.58;;;28.50;33.90;;;;;;5086859;28;45185;-72
2022/08/01 02:19:20;;;;;;;0.95;0.90;;;28.40;33.80;;;;;;5086962;28;45273;-72
2022/08/01 02:21:50;;;;;;;1.48;1.30;;;28.40;33.80;;;;;;5086881;28;45301;-72
2022/08/01 02:24:20;;;;;;;0.90;0.90;;;28.40;33.80;;;;;;5085830;28;45141;-72
2022/08/01 02:26:48;;;;;;;1.30;1.20;;;28.40;33.90;;;;;;5086778;28;45310;-73
2022/08/01 02:29:18;;;;;;;1.20;1.10;;;28.30;34.00;;;;;;5086611;28;45296;-72
2022/08/01 02:31:46;;;;;;;1.40;1.30;;;28.30;33.90;;;;;;5087218;28;45178;-72
2022/08/01 02:34:15;;;;;;;1.10;1.10;;;28.30;33.90;;;;;;5086692;28;46461;-72
2022/08/01 02:36:42;;;;;;;1.48;1.08;;;28.30;33.80;;;;;;5090432;27;45145;-72
2022/08/01 02:39:12;;;;;;;1.27;1.17;;;28.30;33.80;;;;;;5097825;27;45134;-72
2022/08/01 02:41:40;;;;;;;1.10;1.00;;;28.30;33.90;;;;;;5086945;28;45287;-72
2022/08/01 02:44:08;;;;;;;1.25;1.17;;;28.20;33.80;;;;;;5085700;28;45226;-72
2022/08/01 02:46:37;;;;;;;1.10;1.10;;;28.20;33.90;;;;;;5086381;28;45167;-72
2022/08/01 02:49:04;;;;;;;1.25;1.15;;;28.20;34.00;;;;;;5086017;28;45425;-72
2022/08/01 02:51:31;;;;;;;1.30;1.20;;;28.20;34.00;;;;;;5086290;28;45153;-72
2022/08/01 02:53:58;;;;;;;1.30;1.20;;;28.20;34.10;;;;;;5086239;28;45445;-72
2022/08/01 02:56:34;;;;;;;1.35;1.25;;;28.10;34.00;;;;;;5086408;27;45181;-72
2022/08/01 02:59:01;;;;;;;1.25;1.20;;;28.10;34.10;;;;;;5086563;28;45291;-72
2022/08/01 03:01:28;;;;;;;1.10;1.10;;;28.10;34.10;;;;;;5086477;28;45264;-72
2022/08/01 03:03:55;;;;;;;2.15;1.20;;;28.10;34.20;;;;;;5086239;28;45236;-72
2022/08/01 03:06:22;;;;;;;1.38;1.27;;;28.10;34.30;;;;;;5086114;28;45146;-72
2022/08/01 03:08:49;;;;;;;1.48;1.38;;;28.10;34.30;;;;;;5086376;28;45126;-72
2022/08/01 03:11:16;;;;;;;1.20;1.10;;;28.00;34.10;;;;;;5086663;28;45275;-72
2022/08/01 03:13:44;;;;;;;3.72;1.40;;;28.00;34.10;;;;;;5085975;28;47464;-73
2022/08/01 03:16:11;;;;;;;1.23;1.20;;;28.00;34.30;;;;;;5086310;28;45308;-73
2022/08/01 03:18:38;;;;;;;1.30;1.27;;;28.00;34.30;;;;;;5086374;28;45436;-72
2022/08/01 03:21:05;;;;;;;1.27;1.17;;;28.00;34.30;;;;;;5086527;28;45510;-72
2022/08/01 03:23:32;;;;;;;1.50;1.40;;;27.90;34.20;;;;;;5086186;28;45323;-73
2022/08/01 03:25:59;;;;;;;1.08;1.02;;;27.90;34.20;;;;;;5085858;28;45252;-72
2022/08/01 03:28:26;;;;;;;1.30;1.20;;;27.90;34.50;;;;;;5086335;28;45382;-72
2022/08/01 03:30:54;;;;;;;1.15;1.10;;;27.90;34.40;;;;;;5086382;28;45286;-72
2022/08/01 03:33:21;;;;;;;1.10;1.10;;;27.90;34.30;;;;;;5085226;28;47330;-72
2022/08/01 03:35:50;;;;;;;1.17;1.08;;;27.90;34.30;;;;;;5089057;28;45320;-72
2022/08/01 03:38:19;;;;;;;1.40;1.30;;;27.80;34.30;;;;;;5091211;27;45127;-72
2022/08/01 03:40:49;;;;;;;1.42;1.33;;;27.80;34.60;;;;;;5109910;27;45541;-72
2022/08/01 03:43:19;;;;;;;1.17;1.08;;;27.80;34.40;;;;;;5109557;27;45519;-73
2022/08/01 03:45:49;;;;;;;1.00;1.00;;;27.80;34.50;;;;;;5109753;27;45253;-73
2022/08/01 03:48:18;;;;;;;1.25;1.25;;;27.80;34.60;;;;;;5109941;27;45228;-72
2022/08/01 03:50:47;;;;;;;1.30;1.20;;;27.80;34.40;;;;;;5110037;27;45227;-72
2022/08/01 03:53:14;;;;;;;2.03;1.27;;;27.70;34.40;;;;;;5109750;27;45375;-73
2022/08/01 03:55:43;;;;;;;1.40;1.30;;;27.70;34.60;;;;;;5109731;27;45397;-73
2022/08/01 03:58:10;;;;;;;0.98;0.98;;;27.70;34.50;;;;;;5109844;27;45184;-73
2022/08/01 04:00:38;;;;;;;1.10;1.10;;;27.70;35.20;;;;;;5109943;27;45123;-72
2022/08/01 04:03:05;;;;;;;1.20;1.20;;;27.70;34.80;;;;;;5108141;27;45391;-73
2022/08/01 04:05:33;;;;;;;1.10;1.10;;;27.70;34.80;;;;;;5109505;27;45233;-73
2022/08/01 04:08:01;;;;;;;1.30;1.20;;;27.70;35.20;;;;;;5109693;27;45253;-73
2022/08/01 04:10:28;;;;;;;1.50;1.40;;;27.70;34.80;;;;;;5109416;27;45292;-72
2022/08/01 04:12:55;;;;;;;1.20;1.10;;;27.60;34.80;;;;;;5106932;27;47309;-72
2022/08/01 04:15:22;;;;;;;1.00;1.00;;;27.60;34.80;;;;;;5088725;28;45401;-73
2022/08/01 04:17:49;;;;;;;1.50;1.40;;;27.60;34.70;;;;;;5088904;28;45378;-72
2022/08/01 04:20:16;;;;;;;1.17;1.17;;;27.60;34.90;;;;;;5089115;28;45222;-73
2022/08/01 04:22:44;;;;;;;2.35;1.20;;;27.60;35.00;;;;;;5088670;28;45347;-72
2022/08/01 04:25:13;;;;;;;1.10;1.10;;;27.60;35.50;;;;;;5087827;28;45416;-73
2022/08/01 04:27:41;;;;;;;1.30;1.20;;;27.60;34.90;;;;;;5088165;28;45170;-73
2022/08/01 04:30:09;;;;;;;1.52;1.42;;;27.60;34.90;;;;;;5093103;27;45375;-72
2022/08/01 04:32:38;;;;;;;2.58;1.20;;;27.50;34.90;;;;;;5109210;27;46384;-72
2022/08/01 04:35:07;;;;;;;1.90;1.40;;;27.50;35.00;;;;;;5108902;27;45304;-73
2022/08/01 04:37:36;;;;;;;1.30;1.20;;;27.50;35.10;;;;;;5092860;27;45356;-72
2022/08/01 04:40:06;;;;;;;1.50;1.40;;;27.50;35.00;;;;;;5088285;28;45509;-72
2022/08/01 04:42:32;;;;;;;1.55;1.45;;;27.50;35.10;;;;;;5088399;28;46443;-72
2022/08/01 04:45:00;;;;;;;1.95;1.10;;;27.50;35.10;;;;;;5087971;28;45253;-73
2022/08/01 04:47:27;;;;;;;1.58;1.23;;;27.50;35.20;;;;;;5087710;28;45315;-72
2022/08/01 04:49:56;;;;;;;1.40;1.30;;;27.50;35.20;;;;;;5088638;28;45184;-72
2022/08/01 04:52:23;;;;;;;1.60;1.50;;;27.50;35.30;;;;;;5088134;28;46681;-72
2022/08/01 04:54:50;;;;;;;1.33;1.23;;;27.40;35.20;;;;;;5088094;28;45403;-72
2022/08/01 04:57:18;;;;;;;1.50;1.40;;;27.40;35.30;;;;;;5088244;28;45279;-72
2022/08/01 04:59:46;;;;;;;1.45;1.35;;;27.40;35.20;;;;;;5088495;28;45437;-72
2022/08/01 05:02:14;;;;;;;1.38;1.27;;;27.40;35.20;;;;;;5088046;28;46370;-73
2022/08/01 05:04:41;;;;;;;1.50;1.40;;;27.40;35.20;;;;;;5087898;28;45320;-73
2022/08/01 05:07:08;;;;;;;1.70;1.23;;;27.40;35.20;;;;;;5088047;28;45290;-73
2022/08/01 05:09:35;;;;;;;1.27;1.27;;;27.40;35.30;;;;;;5088153;28;45179;-72
2022/08/01 05:12:02;;;;;;;1.50;1.40;;;27.40;35.40;;;;;;5087831;28;45213;-72
2022/08/01 05:14:31;;;;;;;1.50;1.40;;;27.30;35.30;;;;;;5087915;28;45338;-72
2022/08/01 05:16:58;;;;;;;1.63;1.52;;;27.30;35.40;;;;;;5087261;28;45289;-72
2022/08/01 05:19:26;;;;;;;1.67;1.58;;;27.30;35.40;;;;;;5088106;28;45239;-72
2022/08/01 05:21:53;;;;;;;1.42;1.33;;;27.30;35.50;;;;;;5087562;28;45529;-72
2022/08/01 05:24:19;;;;;;;1.30;1.20;;;27.30;35.40;;;;;;5087652;28;45238;-72
2022/08/01 05:26:46;;;;;;;1.48;1.38;;;27.30;35.30;;;;;;5087824;28;45178;-72
2022/08/01 05:29:13;;;;;;;1.65;1.55;;;27.30;35.30;;;;;;5084633;28;45166;-72
2022/08/01 05:31:41;;;;;;;1.60;1.50;;;27.40;35.30;;;;;;5084575;28;46636;-72
2022/08/01 05:34:08;;;;;;;1.40;1.30;;;27.40;35.30;;;;;;5087480;28;45359;-72
2022/08/01 05:36:37;;;;;;;1.45;1.23;;;27.40;35.20;;;;;;5090438;27;45349;-73
2022/08/01 05:39:04;;;;;;;1.60;1.50;;;27.40;35.20;;;;;;5103460;27;45193;-72
2022/08/01 05:41:31;;;;;;;1.52;1.42;;;27.40;35.20;;;;;;5107843;27;46724;-72
2022/08/01 05:43:57;;;;;;;1.35;1.25;;;27.40;35.20;;;;;;5107862;27;45143;-72
2022/08/01 05:46:24;;;;;;;1.48;1.35;;;27.40;35.30;;;;;;5106498;27;45300;-72
2022/08/01 05:48:52;;;;;;;1.48;1.38;;;27.40;35.30;;;;;;5108177;27;45444;-72
2022/08/01 05:51:19;;;;;;;1.40;1.30;;;27.40;35.30;;;;;;5107433;27;46724;-73
2022/08/01 05:53:47;;;;;;;1.48;1.38;;;27.40;35.30;;;;;;5108055;27;45299;-72
2022/08/01 05:56:13;;;;;;;1.40;1.30;;;27.40;35.30;;;;;;5107817;27;45453;-72
2022/08/01 05:58:40;;;;;;;1.67;1.58;;;27.40;35.30;;;;;;5107586;27;45256;-72
2022/08/01 06:01:07;;;;;;;1.50;1.40;;;27.40;35.20;;;;;;5107427;27;46379;-72
2022/08/01 06:03:34;;;;;;;1.33;1.20;;;27.40;35.30;;;;;;5106828;27;45142;-72
2022/08/01 06:06:02;;;;;;;1.45;1.35;;;27.40;35.30;;;;;;5107550;27;45197;-72
2022/08/01 06:08:29;;;;;;;1.60;1.50;;;27.40;36.00;;;;;;5108019;27;45385;-73
2022/08/01 06:10:56;;;;;;;1.90;1.45;;;27.40;35.40;;;;;;5107422;27;45430;-73
2022/08/01 06:13:23;;;;;;;1.60;1.50;;;27.30;35.40;;;;;;5101239;27;45340;-72
2022/08/01 06:15:50;;;;;;;2.65;1.50;;;27.30;35.40;;;;;;5087186;28;45193;-72
2022/08/01 06:18:16;;;;;;;1.48;1.38;;;27.30;35.40;;;;;;5087204;28;45504;-73
2022/08/01 06:20:43;;;;;;;1.50;1.40;;;27.30;35.50;;;;;;5086707;28;46417;-72
2022/08/01 06:23:11;;;;;;;1.60;1.50;;;27.30;35.50;;;;;;5086932;28;45323;-72
2022/08/01 06:25:38;;;;;;;1.55;1.45;;;27.30;35.50;;;;;;5086992;28;45169;-72
2022/08/01 06:28:05;;;;;;;1.88;1.48;;;27.30;35.50;;;;;;5087119;28;45293;-73
2022/08/01 06:30:32;;;;;;;2.30;1.30;;;27.30;35.60;;;;;;5086427;28;46377;-73
2022/08/01 06:32:59;;;;;;;3.10;1.40;;;27.30;35.60;;;;;;5086599;28;45260;-72
2022/08/01 06:35:26;;;;;;;1.75;1.20;;;27.30;35.60;;;;;;5086826;28;45282;-73
2022/08/01 06:37:53;;;;;;;1.50;1.40;;;27.30;35.60;;;;;;5100619;27;45447;-72
2022/08/01 06:40:21;;;;;;;1.73;1.45;;;27.30;35.70;;;;;;5087712;27;45182;-72
2022/08/01 06:42:48;;;;;;;1.73;1.63;;;27.40;35.70;;;;;;5086695;28;45414;-72
2022/08/01 06:45:15;;;;;;;1.60;1.50;;;27.40;35.80;;;;;;5086825;28;45304;-72
2022/08/01 06:47:43;;;;;;;2.80;1.83;;;27.40;35.90;;;;;;5086189;28;45292;-71
2022/08/01 06:50:10;;;;;;;1.77;1.40;;;27.40;35.80;;;;;;5085896;28;46341;-73
2022/08/01 06:52:37;;;;;;;1.80;1.48;;;27.40;35.90;;;;;;5086530;28;45210;-73
2022/08/01 06:55:05;;;;;;;1.67;1.42;;;27.40;35.80;;;;;;5086761;28;45337;-72
2022/08/01 06:57:33;;;;;;;1.73;1.63;;;27.40;35.90;;;;;;5086699;28;45359;-72
2022/08/01 07:00:02;;;;;;;2.45;1.60;;;27.40;35.90;;;;;;5086502;28;45363;-73
2022/08/01 07:02:29;;;;;;;1.83;1.52;;;27.40;35.90;;;;;;5086311;28;45314;-73
2022/08/01 07:04:59;;;;;;;2.15;1.45;;;27.40;35.90;;;;;;5086608;28;45396;-73
2022/08/01 07:07:26;;;;;;;1.77;1.67;;;27.40;36.00;;;;;;5086516;28;45280;-73
2022/08/01 07:09:53;;;;;;;1.55;1.45;;;27.40;36.10;;;;;;5088192;28;45383;-73
2022/08/01 07:12:20;;;;;;;1.80;1.70;;;27.40;36.10;;;;;;5089636;28;45328;-73
2022/08/01 07:14:48;;;;;;;3.92;2.10;;;27.40;38.90;;;;;;5069713;28;45363;-73
2022/08/01 07:17:15;;;;;;;2.78;2.50;;;27.40;39.90;;;;;;5069642;28;45336;-73
2022/08/01 07:19:42;;;;;;;5.28;2.47;;;27.40;40.00;;;;;;5069509;28;45420;-73
2022/08/01 07:22:09;;;;;;;2.88;2.03;;;27.40;40.50;;;;;;5069180;28;45297;-73
2022/08/01 07:24:35;;;;;;;2.53;2.33;;;27.40;40.80;;;;;;5069143;28;45234;-73
2022/08/01 07:27:02;;;;;;;2.20;2.00;;;27.40;41.10;;;;;;5069232;28;45283;-73
2022/08/01 07:29:29;;;;;;;3.70;2.47;;;27.40;41.40;;;;;;5073162;28;47575;-73
2022/08/01 07:31:57;;;;;;;3.22;2.50;;;27.40;41.50;;;;;;5069176;28;45281;-73
2022/08/01 07:34:25;;;;;;;3.78;2.30;;;27.40;41.50;;;;;;5069048;28;45246;-73
2022/08/01 07:36:52;;;;;;;2.50;2.30;;;27.40;41.20;;;;;;5073448;28;45502;-73
2022/08/01 07:39:18;;;;;;;4.57;2.40;;;27.40;41.40;;;;;;5094909;27;45201;-73
2022/08/01 07:41:45;;;;;;;4.38;2.55;;;27.40;41.60;;;;;;5109127;27;45275;-73
2022/08/01 07:44:12;;;;;;;4.20;2.20;;;27.40;41.50;;;;;;5109798;27;45173;-72
2022/08/01 07:46:39;;;;;;;3.00;2.10;;;27.40;41.50;;;;;;5109866;27;45412;-73
2022/08/01 07:49:07;;;;;;;2.47;2.28;;;27.40;41.70;;;;;;5110075;27;45368;-73
2022/08/01 07:51:34;;;;;;;2.20;2.00;;;27.50;41.70;;;;;;5109880;27;45324;-72
2022/08/01 07:54:01;;;;;;;3.10;1.95;;;27.50;41.60;;;;;;5109807;27;45251;-72
2022/08/01 07:56:28;;;;;;;2.88;2.45;;;27.50;41.70;;;;;;5108160;27;45523;-73
2022/08/01 07:58:54;;;;;;;2.90;2.35;;;27.50;41.80;;;;;;5109491;27;46412;-73
2022/08/01 08:01:21;;;;;;;2.35;2.15;;;27.50;42.10;;;;;;5108976;27;45407;-72
2022/08/01 08:03:48;;;;;;;2.60;2.30;;;27.50;41.90;;;;;;5109320;27;45427;-73
2022/08/01 08:06:16;;;;;;;2.42;2.22;;;27.50;42.10;;;;;;5109429;27;45375;-73
2022/08/01 08:08:43;;;;;;;2.83;2.47;;;27.50;41.90;;;;;;5109309;27;45441;-73
2022/08/01 08:11:10;;;;;;;6.63;2.35;;;27.50;41.90;;;;;;5109585;27;45291;-73
2022/08/01 08:13:37;;;;;;;3.50;2.47;;;27.50;41.70;;;;;;5100233;27;45517;-73
2022/08/01 08:16:04;;;;;;;2.53;2.33;;;27.60;42.20;;;;;;5089128;28;45392;-73
2022/08/01 08:18:31;;;;;;;2.30;2.10;;;27.60;41.70;;;;;;5088394;28;46615;-73
2022/08/01 08:20:58;;;;;;;3.55;2.15;;;27.60;42.00;;;;;;5087808;28;45262;-73
2022/08/01 08:26:23;;;;;;;3.60;2.60;;;27.70;41.60;;;;;;5025799;28;45364;-73
2022/08/01 08:28:50;;;;;;;2.40;2.20;;;27.70;41.90;;;;;;5073282;28;47273;-73
2022/08/01 08:31:16;;;;;;;2.50;2.30;;;27.70;41.80;;;;;;5088474;28;45169;-73
2022/08/01 08:33:43;;;;;;;2.53;2.22;;;27.70;41.60;;;;;;5089052;28;45114;-73
2022/08/01 08:36:11;;;;;;;3.00;2.10;;;27.80;41.40;;;;;;5088252;28;45395;-74
2022/08/01 08:38:39;;;;;;;5.65;2.50;;;27.80;41.10;;;;;;5087677;28;45448;-74
2022/08/01 08:41:06;;;;;;;5.30;2.50;;;27.90;41.30;;;;;;5088670;28;45418;-73
2022/08/01 08:43:33;;;;;;;2.92;2.53;;;27.90;41.20;;;;;;5088449;28;45209;-74
2022/08/01 08:46:00;;;;;;;5.75;2.40;;;27.80;41.50;;;;;;5088356;28;45119;-74
2022/08/01 08:48:27;;;;;;;2.30;2.10;;;27.80;41.60;;;;;;5088113;28;47544;-74
2022/08/01 08:50:54;;;;;;;7.03;2.63;;;27.80;41.80;;;;;;5088212;28;45345;-74
2022/08/01 08:53:21;;;;;;;2.83;2.10;;;27.90;41.50;;;;;;5088360;28;45252;-74
2022/08/01 08:55:49;;;;;;;4.13;2.00;;;27.90;41.40;;;;;;5088663;28;45376;-74
2022/08/01 08:58:16;;;;;;;2.50;2.30;;;27.90;41.60;;;;;;5088078;28;45348;-74
2022/08/01 09:00:43;;;;;;;2.88;2.40;;;27.90;41.70;;;;;;5087863;28;45301;-74
2022/08/01 09:03:09;;;;;;;2.17;2.05;;;28.00;41.60;;;;;;5088079;28;45249;-74
2022/08/01 09:05:37;;;;;;;3.33;2.40;;;28.00;41.60;;;;;;5088504;28;45385;-74
2022/08/01 09:08:07;;;;;;;3.13;2.40;;;28.00;41.80;;;;;;5087768;28;46387;-74
2022/08/01 09:10:34;;;;;;;2.00;1.90;;;28.00;41.80;;;;;;5087909;28;45289;-74
2022/08/01 09:13:06;;;;;;;2.65;2.17;;;28.10;41.60;;;;;;5087717;28;45329;-73
2022/08/01 09:15:43;;;;;;;2.83;2.25;;;28.20;41.60;;;;;;5087900;28;45349;-73
2022/08/01 09:18:27;;;;;;;3.67;2.60;;;28.20;41.20;;;;;;5087833;28;46413;-73
2022/08/01 09:21:14;;;;;;;2.50;2.30;;;28.30;41.20;;;;;;5087706;28;45293;-74
2022/08/01 09:23:43;;;;;;;2.58;2.38;;;28.30;40.70;;;;;;5088036;28;45271;-74
2022/08/01 09:26:10;;;;;;;2.10;1.90;;;28.30;40.40;;;;;;5088406;28;45417;-74
2022/08/01 09:28:38;;;;;;;4.15;2.22;;;28.40;40.20;;;;;;5087063;28;45319;-75
2022/08/01 09:31:09;;;;;;;4.18;2.40;;;28.40;40.20;;;;;;5080829;28;45159;-74
2022/08/01 09:33:52;;;;;;;3.03;1.90;;;28.40;40.00;;;;;;5087319;28;45351;-73
2022/08/01 09:36:19;;;;;;;2.85;2.15;;;28.50;40.00;;;;;;5087810;27;45258;-74
2022/08/01 09:38:46;;;;;;;2.33;2.13;;;28.50;39.90;;;;;;5106983;27;46791;-73
2022/08/01 09:41:13;;;;;;;2.25;2.13;;;28.50;40.00;;;;;;5107369;27;45287;-75
2022/08/01 09:43:42;;;;;;;3.10;2.38;;;28.60;39.80;;;;;;5108131;27;45283;-75
2022/08/01 09:46:11;;;;;;;2.25;2.05;;;28.70;39.70;;;;;;5108243;27;45257;-74
2022/08/01 09:48:39;;;;;;;2.50;2.00;;;28.70;39.60;;;;;;5077419;27;45465;-74
2022/08/01 09:51:06;;;;;;;2.05;1.95;;;28.80;39.70;;;;;;5087135;28;45303;-74
2022/08/01 09:53:41;;;;;;;2.45;1.92;;;28.80;39.60;;;;;;5087409;28;45234;-74
2022/08/01 09:56:11;;;;;;;1.95;1.75;;;28.90;39.80;;;;;;5087378;28;45579;-74
2022/08/01 09:58:56;;;;;;;1.95;1.85;;;29.00;39.70;;;;;;5086924;28;46873;-74
2022/08/01 10:01:23;;;;;;;2.33;1.98;;;29.00;39.60;;;;;;5085098;28;45352;-74
2022/08/01 10:04:08;;;;;;;2.92;2.42;;;29.00;39.60;;;;;;5087315;28;45299;-75
2022/08/01 10:06:35;;;;;;;2.75;2.15;;;29.10;39.40;;;;;;5087005;28;45400;-74
2022/08/01 10:09:02;;;;;;;3.15;2.53;;;29.10;39.40;;;;;;5086886;28;46650;-74
2022/08/01 10:11:29;;;;;;;2.35;2.15;;;29.10;39.10;;;;;;5086871;28;45205;-74
2022/08/01 10:13:57;;;;;;;2.05;1.95;;;29.10;39.40;;;;;;5086922;28;45460;-74
2022/08/01 10:16:25;;;;;;;2.42;2.20;;;29.20;39.50;;;;;;5087048;28;45360;-73
2022/08/01 10:18:51;;;;;;;2.88;2.00;;;29.20;39.30;;;;;;5086647;28;45225;-73
2022/08/01 10:21:18;;;;;;;2.83;2.30;;;29.30;39.50;;;;;;5082639;28;45447;-74
2022/08/01 10:23:45;;;;;;;2.28;2.08;;;29.30;39.40;;;;;;5087104;28;45172;-73
2022/08/01 10:26:12;;;;;;;2.00;1.90;;;29.40;39.20;;;;;;5086589;28;45510;-74
2022/08/01 10:28:39;;;;;;;1.85;1.65;;;29.40;39.10;;;;;;5083053;28;46615;-73
2022/08/01 10:31:08;;;;;;;2.38;2.03;;;29.50;38.80;;;;;;5079873;28;45230;-74
2022/08/01 10:33:35;;;;;;;3.78;2.00;;;29.50;38.80;;;;;;5086787;28;45269;-74
2022/08/01 10:36:02;;;;;;;2.03;1.92;;;29.50;38.70;;;;;;5086613;28;45609;-75
2022/08/01 10:38:29;;;;;;;2.20;1.95;;;29.60;38.40;;;;;;5086142;28;45407;-74
2022/08/01 10:40:56;;;;;;;2.67;2.25;;;29.60;38.70;;;;;;5086291;28;45209;-71
2022/08/01 10:43:23;;;;;;;2.00;1.80;;;29.70;38.60;;;;;;5086094;27;45193;-73
2022/08/01 10:45:50;;;;;;;3.55;2.20;;;29.70;38.50;;;;;;5089814;28;45204;-75
2022/08/01 10:48:21;;;;;;;3.33;2.00;;;29.70;38.50;;;;;;5089751;28;45287;-74
2022/08/01 10:50:49;;;;;;;2.83;2.03;;;29.80;38.40;;;;;;5090046;28;45266;-74
2022/08/01 10:53:17;;;;;;;2.17;1.90;;;29.90;38.40;;;;;;5090140;28;45178;-74
2022/08/01 10:55:51;;;;;;;2.72;2.05;;;29.90;37.90;;;;;;5090252;28;45366;-74
2022/08/01 10:58:23;;;;;;;1.83;1.73;;;30.00;37.90;;;;;;5089827;28;46386;-74
2022/08/01 11:00:50;;;;;;;1.70;1.60;;;30.10;37.60;;;;;;5089908;28;45265;-73
2022/08/01 11:03:26;;;;;;;1.95;1.80;;;30.10;37.60;;;;;;5090266;28;45429;-75
2022/08/01 11:05:53;;;;;;;2.25;1.80;;;30.20;37.40;;;;;;5088049;28;45417;-74
2022/08/01 11:08:22;;;;;;;2.53;1.70;;;30.20;36.50;;;;;;5089491;28;46406;-74
2022/08/01 11:10:49;;;;;;;1.60;1.50;;;30.10;36.80;;;;;;5089789;28;45245;-74
2022/08/01 11:13:16;;;;;;;1.80;1.70;;;30.10;36.40;;;;;;5087585;28;45248;-74
2022/08/01 11:15:43;;;;;;;1.67;1.50;;;30.20;36.20;;;;;;5090070;28;45300;-74
2022/08/01 11:18:32;;;;;;;1.65;1.55;;;30.30;35.90;;;;;;5089473;28;46818;-74
2022/08/01 11:21:00;;;;;;;2.95;1.40;;;30.50;35.70;;;;;;5089641;28;45262;-73
2022/08/01 11:23:31;;;;;;;1.60;1.50;;;30.50;35.10;;;;;;5089536;28;45487;-74
2022/08/01 11:26:08;;;;;;;1.45;1.35;;;30.60;34.30;;;;;;5089990;28;45416;-74
2022/08/01 11:28:35;;;;;;;1.50;1.40;;;30.60;34.30;;;;;;5089036;28;46965;-74
2022/08/01 11:31:26;;;;;;;1.80;1.55;;;30.60;33.80;;;;;;5089491;28;45233;-74
2022/08/01 11:33:54;;;;;;;7.40;1.40;;;30.60;33.80;;;;;;5089964;28;45231;-74
2022/08/01 11:36:21;;;;;;;1.90;1.70;;;30.70;34.00;;;;;;5089329;28;45236;-73
2022/08/01 11:38:48;;;;;;;1.70;1.60;;;30.80;33.90;;;;;;5088856;28;47654;-74
2022/08/01 11:41:16;;;;;;;1.50;1.40;;;30.90;33.60;;;;;;5089265;28;45304;-73
2022/08/01 11:43:56;;;;;;;2.60;1.40;;;31.00;33.80;;;;;;5089348;28;45272;-72
2022/08/01 11:46:56;;;;;;;1.77;1.67;;;31.00;33.80;;;;;;5089517;28;45490;-72
2022/08/01 11:49:33;;;;;;;1.67;1.58;;;31.00;33.70;;;;;;5089010;28;45458;-73
2022/08/01 11:52:01;;;;;;;3.72;2.15;;;31.10;33.90;;;;;;5088010;28;45285;-74
2022/08/01 11:54:29;;;;;;;2.45;1.90;;;31.10;33.90;;;;;;5089015;28;45324;-74
2022/08/01 11:56:58;;;;;;;1.92;1.83;;;31.00;33.70;;;;;;5089144;28;45282;-74
2022/08/01 11:59:25;;;;;;;2.85;1.88;;;30.90;34.00;;;;;;5089049;28;45315;-74
2022/08/01 12:01:52;;;;;;;1.63;1.55;;;31.10;34.20;;;;;;5089030;28;45265;-73
2022/08/01 12:04:19;;;;;;;1.85;1.75;;;31.10;33.90;;;;;;5089294;28;45355;-74
2022/08/01 12:06:47;;;;;;;19.00;3.33;;;31.20;33.90;;;;;;5088972;28;45401;-72
2022/08/01 12:09:21;;;;;;;5.07;2.42;;;31.30;35.20;;;;;;5089419;28;45314;-74
2022/08/01 12:11:49;;;;;;;16.15;2.80;;;31.40;35.00;;;;;;5088531;28;45177;-70
2022/08/01 12:14:20;;;;;;;7.68;2.80;;;31.40;36.00;;;;;;5088292;28;45371;-70
2022/08/01 12:16:54;;;;;;;3.35;1.95;;;31.40;37.20;;;;;;5088271;28;45293;-68
2022/08/01 12:19:22;;;;;;;7.00;2.38;;;31.50;34.80;;;;;;5087865;28;46603;-68
2022/08/01 12:22:09;;;;;;;4.30;2.10;;;31.60;36.00;;;;;;5087949;28;45278;-72
2022/08/01 12:24:36;;;;;;;3.55;2.58;;;31.60;35.00;;;;;;5088374;28;45170;-70
2022/08/01 12:27:03;;;;;;;3.58;2.35;;;31.70;36.70;;;;;;5088222;28;45320;-73
2022/08/01 12:29:35;;;;;;;4.88;2.25;;;31.80;35.50;;;;;;5079070;28;46344;-73
2022/08/01 12:32:01;;;;;;;2.70;2.20;;;32.00;34.80;;;;;;5080147;28;45253;-69
2022/08/01 12:34:28;;;;;;;9.38;2.40;;;32.00;35.90;;;;;;5088575;28;45317;-72
2022/08/01 12:36:56;;;;;;;68.10;8.07;;;32.10;36.00;;;;;;5087920;28;45306;-71
2022/08/01 12:39:29;;;;;;;14.25;3.75;;;32.20;35.70;;;;;;5087497;28;45226;-72
2022/08/01 12:41:56;;;;;;;15.45;2.88;;;32.30;35.50;;;;;;5088148;28;45305;-73
2022/08/01 12:44:23;;;;;;;11.30;2.55;;;32.40;35.40;;;;;;5087996;28;45134;-74
2022/08/01 12:46:50;;;;;;;7.32;2.40;;;32.50;35.10;;;;;;5087678;28;45466;-74
2022/08/01 12:49:17;;;;;;;6.72;2.13;;;32.60;34.70;;;;;;5088165;28;45280;-75
2022/08/01 12:51:43;;;;;;;4.93;2.00;;;32.70;35.40;;;;;;5086160;28;45361;-75
2022/08/01 12:54:10;;;;;;;5.10;2.17;;;32.80;35.40;;;;;;5089092;28;45313;-73